sensor_id;sensor_type;location;lat;lon;timestamp;temperature;humidity
62464;SHT31;48512;48.552;9.380;2023-09-19T00:01:42;16.47;88.89
62464;SHT31;48512;48.552;9.380;2023-09-19T00:04:12;16.53;88.41
62464;SHT31;48512;48.552;9.380;2023-09-19T00:06:38;16.45;89.43
62464;SHT31;48512;48.552;9.380;2023-09-19T00:09:05;16.45;89.22
62464;SHT31;48512;48.552;9.380;2023-09-19T00:11:32;16.46;89.87
62464;SHT31;48512;48.552;9.380;2023-09-19T00:13:58;16.45;89.36
62464;SHT31;48512;48.552;9.380;2023-09-19T00:16:26;16.45;88.51
62464;SHT31;48512;48.552;9.380;2023-09-19T00:18:53;16.49;88.51
62464;SHT31;48512;48.552;9.380;2023-09-19T00:21:19;16.53;87.40
62464;SHT31;48512;48.552;9.380;2023-09-19T00:23:45;16.63;86.79
62464;SHT31;48512;48.552;9.380;2023-09-19T00:26:12;16.59;86.78
62464;SHT31;48512;48.552;9.380;2023-09-19T00:28:39;16.68;86.86
62464;SHT31;48512;48.552;9.380;2023-09-19T00:31:08;16.73;84.34
62464;SHT31;48512;48.552;9.380;2023-09-19T00:33:34;16.74;85.33
62464;SHT31;48512;48.552;9.380;2023-09-19T00:36:00;16.78;86.82
62464;SHT31;48512;48.552;9.380;2023-09-19T00:38:31;16.83;82.27
62464;SHT31;48512;48.552;9.380;2023-09-19T00:40:57;16.91;82.18
62464;SHT31;48512;48.552;9.380;2023-09-19T00:43:25;16.95;82.80
62464;SHT31;48512;48.552;9.380;2023-09-19T00:45:55;16.95;84.00
62464;SHT31;48512;48.552;9.380;2023-09-19T00:48:21;16.88;83.48
62464;SHT31;48512;48.552;9.380;2023-09-19T00:50:48;16.92;82.21
62464;SHT31;48512;48.552;9.380;2023-09-19T00:53:20;16.95;82.77
62464;SHT31;48512;48.552;9.380;2023-09-19T00:55:49;16.94;82.81
62464;SHT31;48512;48.552;9.380;2023-09-19T00:58:17;16.94;83.38
62464;SHT31;48512;48.552;9.380;2023-09-19T01:00:45;16.92;82.64
62464;SHT31;48512;48.552;9.380;2023-09-19T01:03:12;16.91;82.13
62464;SHT31;48512;48.552;9.380;2023-09-19T01:05:44;16.92;83.07
62464;SHT31;48512;48.552;9.380;2023-09-19T01:08:11;16.88;82.79
62464;SHT31;48512;48.552;9.380;2023-09-19T01:10:46;16.92;82.35
62464;SHT31;48512;48.552;9.380;2023-09-19T01:13:43;16.97;82.05
62464;SHT31;48512;48.552;9.380;2023-09-19T01:22:02;17.04;82.54
62464;SHT31;48512;48.552;9.380;2023-09-19T01:30:36;17.04;82.58
62464;SHT31;48512;48.552;9.380;2023-09-19T01:33:06;17.01;82.19
62464;SHT31;48512;48.552;9.380;2023-09-19T01:35:32;17.04;82.20
62464;SHT31;48512;48.552;9.380;2023-09-19T01:38:03;17.01;82.19
62464;SHT31;48512;48.552;9.380;2023-09-19T01:40:30;17.04;82.67
62464;SHT31;48512;48.552;9.380;2023-09-19T01:43:10;17.03;82.62
62464;SHT31;48512;48.552;9.380;2023-09-19T01:51:10;16.97;84.57
62464;SHT31;48512;48.552;9.380;2023-09-19T01:53:40;16.88;83.29
62464;SHT31;48512;48.552;9.380;2023-09-19T01:56:12;16.92;83.95
62464;SHT31;48512;48.552;9.380;2023-09-19T01:58:46;16.91;83.29
62464;SHT31;48512;48.552;9.380;2023-09-19T02:01:19;16.91;83.22
62464;SHT31;48512;48.552;9.380;2023-09-19T02:03:47;16.92;83.05
62464;SHT31;48512;48.552;9.380;2023-09-19T02:06:14;16.89;83.67
62464;SHT31;48512;48.552;9.380;2023-09-19T02:08:41;16.94;83.53
62464;SHT31;48512;48.552;9.380;2023-09-19T02:11:08;16.94;84.08
62464;SHT31;48512;48.552;9.380;2023-09-19T02:13:34;16.94;85.07
62464;SHT31;48512;48.552;9.380;2023-09-19T02:16:00;16.95;84.89
62464;SHT31;48512;48.552;9.380;2023-09-19T02:18:26;16.91;84.56
62464;SHT31;48512;48.552;9.380;2023-09-19T02:20:54;16.89;84.12
62464;SHT31;48512;48.552;9.380;2023-09-19T02:23:20;16.94;83.38
62464;SHT31;48512;48.552;9.380;2023-09-19T02:25:53;16.98;83.48
62464;SHT31;48512;48.552;9.380;2023-09-19T02:28:21;16.98;83.71
62464;SHT31;48512;48.552;9.380;2023-09-19T02:30:48;16.97;84.22
62464;SHT31;48512;48.552;9.380;2023-09-19T02:33:16;16.97;83.97
62464;SHT31;48512;48.552;9.380;2023-09-19T02:35:43;17.00;83.53
62464;SHT31;48512;48.552;9.380;2023-09-19T02:38:09;17.01;83.47
62464;SHT31;48512;48.552;9.380;2023-09-19T02:40:37;17.01;83.79
62464;SHT31;48512;48.552;9.380;2023-09-19T02:43:03;17.03;83.48
62464;SHT31;48512;48.552;9.380;2023-09-19T02:45:31;17.00;84.06
62464;SHT31;48512;48.552;9.380;2023-09-19T02:47:57;16.97;83.65
62464;SHT31;48512;48.552;9.380;2023-09-19T02:50:24;16.94;83.88
62464;SHT31;48512;48.552;9.380;2023-09-19T02:52:50;16.91;83.82
62464;SHT31;48512;48.552;9.380;2023-09-19T02:55:17;16.91;84.09
62464;SHT31;48512;48.552;9.380;2023-09-19T02:57:46;16.84;84.27
62464;SHT31;48512;48.552;9.380;2023-09-19T03:00:12;16.88;84.04
62464;SHT31;48512;48.552;9.380;2023-09-19T03:02:39;16.85;84.14
62464;SHT31;48512;48.552;9.380;2023-09-19T03:05:07;16.84;84.57
62464;SHT31;48512;48.552;9.380;2023-09-19T03:07:33;16.87;83.92
62464;SHT31;48512;48.552;9.380;2023-09-19T03:10:00;16.81;84.10
62464;SHT31;48512;48.552;9.380;2023-09-19T03:12:26;16.81;84.21
62464;SHT31;48512;48.552;9.380;2023-09-19T03:14:53;16.83;84.19
62464;SHT31;48512;48.552;9.380;2023-09-19T03:17:19;16.81;83.91
62464;SHT31;48512;48.552;9.380;2023-09-19T03:19:46;16.84;84.23
62464;SHT31;48512;48.552;9.380;2023-09-19T03:22:14;16.84;83.96
62464;SHT31;48512;48.552;9.380;2023-09-19T03:24:40;16.85;83.79
62464;SHT31;48512;48.552;9.380;2023-09-19T03:27:09;16.87;84.04
62464;SHT31;48512;48.552;9.380;2023-09-19T03:29:36;16.85;83.87
62464;SHT31;48512;48.552;9.380;2023-09-19T03:32:04;16.88;83.82
62464;SHT31;48512;48.552;9.380;2023-09-19T03:34:30;16.84;83.94
62464;SHT31;48512;48.552;9.380;2023-09-19T03:36:57;16.87;84.05
62464;SHT31;48512;48.552;9.380;2023-09-19T03:39:23;16.92;83.62
62464;SHT31;48512;48.552;9.380;2023-09-19T03:41:50;16.91;83.60
62464;SHT31;48512;48.552;9.380;2023-09-19T03:44:16;16.91;84.06
62464;SHT31;48512;48.552;9.380;2023-09-19T03:46:42;16.95;83.75
62464;SHT31;48512;48.552;9.380;2023-09-19T03:49:08;16.95;83.38
62464;SHT31;48512;48.552;9.380;2023-09-19T03:51:35;17.00;83.65
62464;SHT31;48512;48.552;9.380;2023-09-19T03:54:01;16.97;83.46
62464;SHT31;48512;48.552;9.380;2023-09-19T03:56:30;16.98;83.47
62464;SHT31;48512;48.552;9.380;2023-09-19T03:58:57;17.00;83.27
62464;SHT31;48512;48.552;9.380;2023-09-19T04:01:23;17.00;83.37
62464;SHT31;48512;48.552;9.380;2023-09-19T04:03:49;16.97;84.31
62464;SHT31;48512;48.552;9.380;2023-09-19T04:06:17;16.98;84.95
62464;SHT31;48512;48.552;9.380;2023-09-19T04:08:44;16.95;85.13
62464;SHT31;48512;48.552;9.380;2023-09-19T04:11:11;16.94;84.93
62464;SHT31;48512;48.552;9.380;2023-09-19T04:13:37;16.88;85.11
62464;SHT31;48512;48.552;9.380;2023-09-19T04:16:04;16.76;85.85
62464;SHT31;48512;48.552;9.380;2023-09-19T04:18:30;16.71;86.96
62464;SHT31;48512;48.552;9.380;2023-09-19T04:20:59;16.70;87.84
62464;SHT31;48512;48.552;9.380;2023-09-19T04:23:29;16.49;87.60
62464;SHT31;48512;48.552;9.380;2023-09-19T04:25:55;16.45;88.95
62464;SHT31;48512;48.552;9.380;2023-09-19T04:28:21;16.38;89.50
62464;SHT31;48512;48.552;9.380;2023-09-19T04:30:47;16.33;89.83
62464;SHT31;48512;48.552;9.380;2023-09-19T04:33:14;16.30;89.84
62464;SHT31;48512;48.552;9.380;2023-09-19T04:35:40;16.23;89.18
62464;SHT31;48512;48.552;9.380;2023-09-19T04:38:08;16.26;89.34
62464;SHT31;48512;48.552;9.380;2023-09-19T04:40:35;16.29;89.63
62464;SHT31;48512;48.552;9.380;2023-09-19T04:43:01;16.29;89.90
62464;SHT31;48512;48.552;9.380;2023-09-19T04:45:27;16.30;89.97
62464;SHT31;48512;48.552;9.380;2023-09-19T04:47:54;16.29;90.09
62464;SHT31;48512;48.552;9.380;2023-09-19T04:50:20;16.23;90.43
62464;SHT31;48512;48.552;9.380;2023-09-19T04:52:52;16.21;90.11
62464;SHT31;48512;48.552;9.380;2023-09-19T04:55:19;16.18;90.47
62464;SHT31;48512;48.552;9.380;2023-09-19T04:57:47;16.15;90.75
62464;SHT31;48512;48.552;9.380;2023-09-19T05:00:17;16.06;90.72
62464;SHT31;48512;48.552;9.380;2023-09-19T05:02:45;15.94;91.36
62464;SHT31;48512;48.552;9.380;2023-09-19T05:05:11;15.87;91.13
62464;SHT31;48512;48.552;9.380;2023-09-19T05:07:40;15.87;90.58
62464;SHT31;48512;48.552;9.380;2023-09-19T05:10:07;15.95;90.17
62464;SHT31;48512;48.552;9.380;2023-09-19T05:12:36;16.00;90.74
62464;SHT31;48512;48.552;9.380;2023-09-19T05:15:06;15.95;90.53
62464;SHT31;48512;48.552;9.380;2023-09-19T05:17:36;16.00;89.46
62464;SHT31;48512;48.552;9.380;2023-09-19T05:20:02;16.04;89.95
62464;SHT31;48512;48.552;9.380;2023-09-19T05:22:42;16.04;89.61
62464;SHT31;48512;48.552;9.380;2023-09-19T05:25:09;16.08;89.40
62464;SHT31;48512;48.552;9.380;2023-09-19T05:27:36;16.12;89.68
62464;SHT31;48512;48.552;9.380;2023-09-19T05:30:03;16.13;89.66
62464;SHT31;48512;48.552;9.380;2023-09-19T05:32:30;16.15;88.76
62464;SHT31;48512;48.552;9.380;2023-09-19T05:34:56;16.25;87.48
62464;SHT31;48512;48.552;9.380;2023-09-19T05:37:23;16.32;86.17
62464;SHT31;48512;48.552;9.380;2023-09-19T05:39:49;16.38;86.56
62464;SHT31;48512;48.552;9.380;2023-09-19T05:42:15;16.42;86.50
62464;SHT31;48512;48.552;9.380;2023-09-19T05:44:41;16.47;87.45
62464;SHT31;48512;48.552;9.380;2023-09-19T05:47:07;16.47;87.35
62464;SHT31;48512;48.552;9.380;2023-09-19T05:49:35;16.50;86.98
62464;SHT31;48512;48.552;9.380;2023-09-19T05:52:05;16.55;86.46
62464;SHT31;48512;48.552;9.380;2023-09-19T05:54:32;16.57;87.27
62464;SHT31;48512;48.552;9.380;2023-09-19T05:57:00;16.61;87.35
62464;SHT31;48512;48.552;9.380;2023-09-19T05:59:27;16.61;87.00
62464;SHT31;48512;48.552;9.380;2023-09-19T06:01:53;16.67;87.35
62464;SHT31;48512;48.552;9.380;2023-09-19T06:04:20;16.76;87.96
62464;SHT31;48512;48.552;9.380;2023-09-19T06:06:47;16.77;86.05
62464;SHT31;48512;48.552;9.380;2023-09-19T06:09:14;16.77;85.79
62464;SHT31;48512;48.552;9.380;2023-09-19T06:11:43;16.76;86.20
62464;SHT31;48512;48.552;9.380;2023-09-19T06:14:09;16.78;86.20
62464;SHT31;48512;48.552;9.380;2023-09-19T06:16:36;16.78;86.94
62464;SHT31;48512;48.552;9.380;2023-09-19T06:19:04;16.88;86.36
62464;SHT31;48512;48.552;9.380;2023-09-19T06:21:34;16.85;84.39
62464;SHT31;48512;48.552;9.380;2023-09-19T06:24:00;16.94;84.69
62464;SHT31;48512;48.552;9.380;2023-09-19T06:26:26;16.98;84.77
62464;SHT31;48512;48.552;9.380;2023-09-19T06:28:53;17.03;85.45
62464;SHT31;48512;48.552;9.380;2023-09-19T06:31:19;17.01;84.77
62464;SHT31;48512;48.552;9.380;2023-09-19T06:33:48;16.98;85.07
62464;SHT31;48512;48.552;9.380;2023-09-19T06:36:14;16.95;85.36
62464;SHT31;48512;48.552;9.380;2023-09-19T06:38:41;17.00;86.35
62464;SHT31;48512;48.552;9.380;2023-09-19T06:41:07;17.04;86.30
62464;SHT31;48512;48.552;9.380;2023-09-19T06:43:34;17.10;86.32
62464;SHT31;48512;48.552;9.380;2023-09-19T06:46:01;17.03;86.23
62464;SHT31;48512;48.552;9.380;2023-09-19T06:48:28;17.07;86.66
62464;SHT31;48512;48.552;9.380;2023-09-19T06:50:59;17.05;86.53
62464;SHT31;48512;48.552;9.380;2023-09-19T06:53:34;17.08;86.79
62464;SHT31;48512;48.552;9.380;2023-09-19T06:56:02;17.04;85.98
62464;SHT31;48512;48.552;9.380;2023-09-19T06:58:29;17.10;86.33
62464;SHT31;48512;48.552;9.380;2023-09-19T07:00:55;17.16;87.00
62464;SHT31;48512;48.552;9.380;2023-09-19T07:03:22;17.16;86.28
62464;SHT31;48512;48.552;9.380;2023-09-19T07:05:51;17.19;86.50
62464;SHT31;48512;48.552;9.380;2023-09-19T07:08:18;17.22;86.04
62464;SHT31;48512;48.552;9.380;2023-09-19T07:10:45;17.25;86.21
62464;SHT31;48512;48.552;9.380;2023-09-19T07:13:16;17.28;85.98
62464;SHT31;48512;48.552;9.380;2023-09-19T07:15:44;17.22;85.40
62464;SHT31;48512;48.552;9.380;2023-09-19T07:18:14;17.29;85.51
62464;SHT31;48512;48.552;9.380;2023-09-19T07:20:43;17.29;85.69
62464;SHT31;48512;48.552;9.380;2023-09-19T07:23:19;17.32;86.00
62464;SHT31;48512;48.552;9.380;2023-09-19T07:25:48;17.29;85.31
62464;SHT31;48512;48.552;9.380;2023-09-19T07:28:14;17.38;86.00
62464;SHT31;48512;48.552;9.380;2023-09-19T07:30:41;17.43;85.53
62464;SHT31;48512;48.552;9.380;2023-09-19T07:33:13;17.52;85.54
62464;SHT31;48512;48.552;9.380;2023-09-19T07:35:39;17.59;84.81
62464;SHT31;48512;48.552;9.380;2023-09-19T07:38:08;17.67;85.76
62464;SHT31;48512;48.552;9.380;2023-09-19T07:40:36;17.52;84.64
62464;SHT31;48512;48.552;9.380;2023-09-19T07:43:02;17.54;83.98
62464;SHT31;48512;48.552;9.380;2023-09-19T07:45:31;17.53;84.87
62464;SHT31;48512;48.552;9.380;2023-09-19T07:47:57;17.54;83.64
62464;SHT31;48512;48.552;9.380;2023-09-19T07:50:23;17.63;84.19
62464;SHT31;48512;48.552;9.380;2023-09-19T07:52:50;17.62;84.02
62464;SHT31;48512;48.552;9.380;2023-09-19T07:55:28;17.59;83.65
62464;SHT31;48512;48.552;9.380;2023-09-19T07:57:54;17.69;83.54
62464;SHT31;48512;48.552;9.380;2023-09-19T08:00:24;17.63;83.46
62464;SHT31;48512;48.552;9.380;2023-09-19T08:02:50;17.57;83.87
62464;SHT31;48512;48.552;9.380;2023-09-19T08:05:18;17.60;82.78
62464;SHT31;48512;48.552;9.380;2023-09-19T08:07:45;17.60;82.91
62464;SHT31;48512;48.552;9.380;2023-09-19T08:10:15;17.63;82.48
62464;SHT31;48512;48.552;9.380;2023-09-19T08:12:43;17.83;82.81
62464;SHT31;48512;48.552;9.380;2023-09-19T08:15:19;17.93;81.92
62464;SHT31;48512;48.552;9.380;2023-09-19T08:17:46;18.01;81.79
62464;SHT31;48512;48.552;9.380;2023-09-19T08:20:13;18.15;80.57
62464;SHT31;48512;48.552;9.380;2023-09-19T08:25:16;18.35;80.28
62464;SHT31;48512;48.552;9.380;2023-09-19T08:27:46;18.44;79.67
62464;SHT31;48512;48.552;9.380;2023-09-19T08:30:16;18.58;78.52
62464;SHT31;48512;48.552;9.380;2023-09-19T08:32:44;18.62;78.33
62464;SHT31;48512;48.552;9.380;2023-09-19T08:35:13;18.65;77.71
62464;SHT31;48512;48.552;9.380;2023-09-19T08:37:39;18.69;77.83
62464;SHT31;48512;48.552;9.380;2023-09-19T08:40:05;18.83;77.69
62464;SHT31;48512;48.552;9.380;2023-09-19T08:42:51;18.87;77.72
62464;SHT31;48512;48.552;9.380;2023-09-19T08:45:24;18.90;77.40
62464;SHT31;48512;48.552;9.380;2023-09-19T08:50:28;19.21;76.29
62464;SHT31;48512;48.552;9.380;2023-09-19T08:52:55;19.25;76.34
62464;SHT31;48512;48.552;9.380;2023-09-19T08:55:28;19.07;74.75
62464;SHT31;48512;48.552;9.380;2023-09-19T08:58:03;18.94;74.77
62464;SHT31;48512;48.552;9.380;2023-09-19T09:00:30;18.85;73.57
62464;SHT31;48512;48.552;9.380;2023-09-19T09:02:58;18.87;74.05
62464;SHT31;48512;48.552;9.380;2023-09-19T09:05:26;18.63;74.02
62464;SHT31;48512;48.552;9.380;2023-09-19T09:07:56;18.63;74.47
62464;SHT31;48512;48.552;9.380;2023-09-19T09:10:23;18.82;74.48
62464;SHT31;48512;48.552;9.380;2023-09-19T09:12:51;18.58;74.38
62464;SHT31;48512;48.552;9.380;2023-09-19T09:15:22;18.85;73.68
62464;SHT31;48512;48.552;9.380;2023-09-19T09:17:52;19.08;73.92
62464;SHT31;48512;48.552;9.380;2023-09-19T09:20:22;19.31;74.21
62464;SHT31;48512;48.552;9.380;2023-09-19T09:25:19;19.79;71.25
62464;SHT31;48512;48.552;9.380;2023-09-19T09:28:02;19.83;71.69
62464;SHT31;48512;48.552;9.380;2023-09-19T09:30:35;19.73;70.64
62464;SHT31;48512;48.552;9.380;2023-09-19T09:33:10;19.73;70.13
62464;SHT31;48512;48.552;9.380;2023-09-19T09:38:23;19.55;69.74
62464;SHT31;48512;48.552;9.380;2023-09-19T09:40:55;19.42;70.11
62464;SHT31;48512;48.552;9.380;2023-09-19T09:43:28;19.63;70.35
62464;SHT31;48512;48.552;9.380;2023-09-19T09:46:08;19.78;69.94
62464;SHT31;48512;48.552;9.380;2023-09-19T09:48:58;20.03;69.23
62464;SHT31;48512;48.552;9.380;2023-09-19T09:51:41;20.37;68.93
62464;SHT31;48512;48.552;9.380;2023-09-19T09:54:15;20.45;66.39
62464;SHT31;48512;48.552;9.380;2023-09-19T09:56:57;20.74;67.18
62464;SHT31;48512;48.552;9.380;2023-09-19T09:59:55;20.74;65.59
62464;SHT31;48512;48.552;9.380;2023-09-19T10:02:29;21.07;65.12
62464;SHT31;48512;48.552;9.380;2023-09-19T10:04:56;21.30;64.20
62464;SHT31;48512;48.552;9.380;2023-09-19T10:07:33;21.62;64.40
62464;SHT31;48512;48.552;9.380;2023-09-19T10:10:06;21.19;63.54
62464;SHT31;48512;48.552;9.380;2023-09-19T10:12:48;21.26;64.59
62464;SHT31;48512;48.552;9.380;2023-09-19T10:15:16;21.29;64.19
62464;SHT31;48512;48.552;9.380;2023-09-19T10:17:44;21.41;62.60
62464;SHT31;48512;48.552;9.380;2023-09-19T10:20:16;21.87;62.45
62464;SHT31;48512;48.552;9.380;2023-09-19T10:22:52;21.53;62.88
62464;SHT31;48512;48.552;9.380;2023-09-19T10:25:27;21.82;62.58
62464;SHT31;48512;48.552;9.380;2023-09-19T10:28:00;21.91;62.15
62464;SHT31;48512;48.552;9.380;2023-09-19T10:30:36;21.94;61.76
62464;SHT31;48512;48.552;9.380;2023-09-19T10:33:04;22.06;62.62
62464;SHT31;48512;48.552;9.380;2023-09-19T10:35:32;21.89;61.03
62464;SHT31;48512;48.552;9.380;2023-09-19T10:38:03;22.10;63.71
62464;SHT31;48512;48.552;9.380;2023-09-19T10:40:32;22.39;60.74
62464;SHT31;48512;48.552;9.380;2023-09-19T10:43:03;22.77;60.94
62464;SHT31;48512;48.552;9.380;2023-09-19T10:45:32;23.43;59.72
62464;SHT31;48512;48.552;9.380;2023-09-19T10:48:00;23.70;57.60
62464;SHT31;48512;48.552;9.380;2023-09-19T10:50:30;24.01;57.40
62464;SHT31;48512;48.552;9.380;2023-09-19T10:53:00;24.01;56.24
62464;SHT31;48512;48.552;9.380;2023-09-19T10:55:31;24.05;56.34
62464;SHT31;48512;48.552;9.380;2023-09-19T10:57:58;23.38;55.23
62464;SHT31;48512;48.552;9.380;2023-09-19T11:00:26;24.11;56.38
62464;SHT31;48512;48.552;9.380;2023-09-19T11:05:39;24.91;54.26
62464;SHT31;48512;48.552;9.380;2023-09-19T11:08:10;24.61;53.85
62464;SHT31;48512;48.552;9.380;2023-09-19T11:10:48;24.89;52.19
62464;SHT31;48512;48.552;9.380;2023-09-19T11:13:27;25.30;52.64
62464;SHT31;48512;48.552;9.380;2023-09-19T11:26:43;25.69;50.59
62464;SHT31;48512;48.552;9.380;2023-09-19T11:29:30;25.57;50.48
62464;SHT31;48512;48.552;9.380;2023-09-19T11:32:00;25.68;49.71
62464;SHT31;48512;48.552;9.380;2023-09-19T11:34:43;26.14;49.87
62464;SHT31;48512;48.552;9.380;2023-09-19T11:40:26;24.97;49.55
62464;SHT31;48512;48.552;9.380;2023-09-19T11:42:45;24.83;51.48
62464;SHT31;48512;48.552;9.380;2023-09-19T11:48:24;24.36;51.76
62464;SHT31;48512;48.552;9.380;2023-09-19T11:50:53;24.82;52.53
62464;SHT31;48512;48.552;9.380;2023-09-19T11:53:22;25.20;51.78
62464;SHT31;48512;48.552;9.380;2023-09-19T11:55:51;25.07;53.20
62464;SHT31;48512;48.552;9.380;2023-09-19T11:58:18;25.58;51.19
62464;SHT31;48512;48.552;9.380;2023-09-19T12:00:46;26.17;50.94
62464;SHT31;48512;48.552;9.380;2023-09-19T12:03:21;26.58;49.24
62464;SHT31;48512;48.552;9.380;2023-09-19T12:05:48;26.84;49.30
62464;SHT31;48512;48.552;9.380;2023-09-19T12:08:15;27.13;48.90
62464;SHT31;48512;48.552;9.380;2023-09-19T12:10:47;26.79;47.16
62464;SHT31;48512;48.552;9.380;2023-09-19T12:13:18;26.34;50.48
62464;SHT31;48512;48.552;9.380;2023-09-19T12:15:45;26.20;50.23
62464;SHT31;48512;48.552;9.380;2023-09-19T12:18:29;27.17;48.82
62464;SHT31;48512;48.552;9.380;2023-09-19T12:20:56;26.94;49.74
62464;SHT31;48512;48.552;9.380;2023-09-19T12:23:26;26.27;49.96
62464;SHT31;48512;48.552;9.380;2023-09-19T12:25:54;27.26;48.27
62464;SHT31;48512;48.552;9.380;2023-09-19T12:28:26;27.55;45.66
62464;SHT31;48512;48.552;9.380;2023-09-19T12:30:52;26.64;47.83
62464;SHT31;48512;48.552;9.380;2023-09-19T12:33:21;26.30;49.24
62464;SHT31;48512;48.552;9.380;2023-09-19T12:35:51;26.51;49.18
62464;SHT31;48512;48.552;9.380;2023-09-19T12:38:27;27.20;48.59
62464;SHT31;48512;48.552;9.380;2023-09-19T12:41:01;26.79;48.81
62464;SHT31;48512;48.552;9.380;2023-09-19T12:43:31;26.26;48.91
62464;SHT31;48512;48.552;9.380;2023-09-19T12:46:02;27.15;48.46
62464;SHT31;48512;48.552;9.380;2023-09-19T12:48:28;27.54;47.29
62464;SHT31;48512;48.552;9.380;2023-09-19T12:51:06;28.19;45.36
62464;SHT31;48512;48.552;9.380;2023-09-19T12:53:37;27.50;45.83
62464;SHT31;48512;48.552;9.380;2023-09-19T12:56:06;28.23;46.60
62464;SHT31;48512;48.552;9.380;2023-09-19T12:58:32;28.64;45.17
62464;SHT31;48512;48.552;9.380;2023-09-19T13:01:01;29.03;45.07
62464;SHT31;48512;48.552;9.380;2023-09-19T13:03:31;29.12;44.87
62464;SHT31;48512;48.552;9.380;2023-09-19T13:06:01;28.67;44.10
62464;SHT31;48512;48.552;9.380;2023-09-19T13:08:31;28.97;43.61
62464;SHT31;48512;48.552;9.380;2023-09-19T13:16:14;28.42;45.09
62464;SHT31;48512;48.552;9.380;2023-09-19T13:18:49;28.97;43.56
62464;SHT31;48512;48.552;9.380;2023-09-19T13:21:30;28.26;44.57
62464;SHT31;48512;48.552;9.380;2023-09-19T13:24:18;28.93;44.23
62464;SHT31;48512;48.552;9.380;2023-09-19T13:26:46;28.87;43.47
62464;SHT31;48512;48.552;9.380;2023-09-19T13:29:12;28.63;42.08
62464;SHT31;48512;48.552;9.380;2023-09-19T13:31:39;28.16;43.53
62464;SHT31;48512;48.552;9.380;2023-09-19T13:34:07;27.78;45.09
62464;SHT31;48512;48.552;9.380;2023-09-19T13:36:33;27.58;44.66
62464;SHT31;48512;48.552;9.380;2023-09-19T13:38:59;27.57;44.53
62464;SHT31;48512;48.552;9.380;2023-09-19T13:41:26;27.85;43.43
62464;SHT31;48512;48.552;9.380;2023-09-19T13:43:52;28.05;43.00
62464;SHT31;48512;48.552;9.380;2023-09-19T13:46:19;27.97;41.91
62464;SHT31;48512;48.552;9.380;2023-09-19T13:48:51;28.64;43.07
62464;SHT31;48512;48.552;9.380;2023-09-19T13:51:21;28.88;41.25
62464;SHT31;48512;48.552;9.380;2023-09-19T13:53:51;28.39;41.79
62464;SHT31;48512;48.552;9.380;2023-09-19T13:56:17;27.87;42.17
62464;SHT31;48512;48.552;9.380;2023-09-19T13:58:43;27.98;43.31
62464;SHT31;48512;48.552;9.380;2023-09-19T14:01:09;28.35;43.65
62464;SHT31;48512;48.552;9.380;2023-09-19T14:03:41;28.08;42.23
62464;SHT31;48512;48.552;9.380;2023-09-19T14:06:15;28.49;43.27
62464;SHT31;48512;48.552;9.380;2023-09-19T14:08:42;28.36;43.63
62464;SHT31;48512;48.552;9.380;2023-09-19T14:11:08;28.55;44.12
62464;SHT31;48512;48.552;9.380;2023-09-19T14:13:35;28.77;43.41
62464;SHT31;48512;48.552;9.380;2023-09-19T14:16:04;28.19;44.42
62464;SHT31;48512;48.552;9.380;2023-09-19T14:18:32;28.46;44.00
62464;SHT31;48512;48.552;9.380;2023-09-19T14:21:03;28.48;44.36
62464;SHT31;48512;48.552;9.380;2023-09-19T14:23:34;28.67;43.89
62464;SHT31;48512;48.552;9.380;2023-09-19T14:26:01;29.05;43.42
62464;SHT31;48512;48.552;9.380;2023-09-19T14:28:27;28.64;43.70
62464;SHT31;48512;48.552;9.380;2023-09-19T14:30:55;28.45;44.35
62464;SHT31;48512;48.552;9.380;2023-09-19T14:33:22;28.81;43.57
62464;SHT31;48512;48.552;9.380;2023-09-19T14:35:48;29.04;43.99
62464;SHT31;48512;48.552;9.380;2023-09-19T14:38:14;28.84;44.70
62464;SHT31;48512;48.552;9.380;2023-09-19T14:40:40;28.98;44.09
62464;SHT31;48512;48.552;9.380;2023-09-19T14:43:07;29.04;43.91
62464;SHT31;48512;48.552;9.380;2023-09-19T14:45:36;28.94;44.01
62464;SHT31;48512;48.552;9.380;2023-09-19T14:48:02;28.98;44.77
62464;SHT31;48512;48.552;9.380;2023-09-19T14:50:31;28.74;44.61
62464;SHT31;48512;48.552;9.380;2023-09-19T14:52:57;28.91;44.18
62464;SHT31;48512;48.552;9.380;2023-09-19T14:55:27;28.25;44.52
62464;SHT31;48512;48.552;9.380;2023-09-19T14:57:55;27.37;46.38
62464;SHT31;48512;48.552;9.380;2023-09-19T15:00:24;27.25;46.19
62464;SHT31;48512;48.552;9.380;2023-09-19T15:02:50;27.58;45.66
62464;SHT31;48512;48.552;9.380;2023-09-19T15:05:16;27.85;45.59
62464;SHT31;48512;48.552;9.380;2023-09-19T15:07:43;27.76;43.92
62464;SHT31;48512;48.552;9.380;2023-09-19T15:10:09;27.44;43.87
62464;SHT31;48512;48.552;9.380;2023-09-19T15:12:36;27.68;44.29
62464;SHT31;48512;48.552;9.380;2023-09-19T15:15:04;27.64;44.68
62464;SHT31;48512;48.552;9.380;2023-09-19T15:17:35;27.46;43.99
62464;SHT31;48512;48.552;9.380;2023-09-19T15:20:02;27.63;44.79
62464;SHT31;48512;48.552;9.380;2023-09-19T15:22:29;27.82;44.42
62464;SHT31;48512;48.552;9.380;2023-09-19T15:24:55;27.73;43.68
62464;SHT31;48512;48.552;9.380;2023-09-19T15:27:22;27.80;43.98
62464;SHT31;48512;48.552;9.380;2023-09-19T15:29:48;27.70;43.69
62464;SHT31;48512;48.552;9.380;2023-09-19T15:32:14;27.55;43.80
62464;SHT31;48512;48.552;9.380;2023-09-19T15:34:40;27.71;44.91
62464;SHT31;48512;48.552;9.380;2023-09-19T15:37:06;27.67;44.14
62464;SHT31;48512;48.552;9.380;2023-09-19T15:39:32;27.42;43.89
62464;SHT31;48512;48.552;9.380;2023-09-19T15:42:03;27.60;44.44
62464;SHT31;48512;48.552;9.380;2023-09-19T15:44:29;27.60;44.44
62464;SHT31;48512;48.552;9.380;2023-09-19T15:46:55;27.67;44.57
62464;SHT31;48512;48.552;9.380;2023-09-19T15:49:21;27.61;43.90
62464;SHT31;48512;48.552;9.380;2023-09-19T15:51:48;27.70;45.11
62464;SHT31;48512;48.552;9.380;2023-09-19T15:54:15;27.64;44.63
62464;SHT31;48512;48.552;9.380;2023-09-19T15:56:42;27.43;45.01
62464;SHT31;48512;48.552;9.380;2023-09-19T15:59:09;27.44;44.61
62464;SHT31;48512;48.552;9.380;2023-09-19T16:01:39;27.35;44.66
62464;SHT31;48512;48.552;9.380;2023-09-19T16:04:06;27.36;44.83
62464;SHT31;48512;48.552;9.380;2023-09-19T16:06:35;27.39;45.37
62464;SHT31;48512;48.552;9.380;2023-09-19T16:09:02;27.17;45.16
62464;SHT31;48512;48.552;9.380;2023-09-19T16:11:32;27.22;44.67
62464;SHT31;48512;48.552;9.380;2023-09-19T16:13:58;27.03;44.40
62464;SHT31;48512;48.552;9.380;2023-09-19T16:16:25;27.16;44.85
62464;SHT31;48512;48.552;9.380;2023-09-19T16:18:56;27.17;45.11
62464;SHT31;48512;48.552;9.380;2023-09-19T16:21:24;27.17;45.04
62464;SHT31;48512;48.552;9.380;2023-09-19T16:23:52;27.25;45.39
62464;SHT31;48512;48.552;9.380;2023-09-19T16:26:22;27.20;45.08
62464;SHT31;48512;48.552;9.380;2023-09-19T16:28:51;27.03;44.58
62464;SHT31;48512;48.552;9.380;2023-09-19T16:31:18;26.91;45.63
62464;SHT31;48512;48.552;9.380;2023-09-19T16:33:46;26.85;46.27